Weather History for KACB - March, 2013

Change the Weather History Date:

Monday, March 25, 2013

  Actual Average (KTVC) Record (KTVC)
Temperature  
Mean Temperature 30 °F 34 °F  
Max Temperature 37 °F 44 °F 78 °F (1945)
Min Temperature 22 °F 25 °F -8 °F (1965)
Degree Days  
Heating Degree Days 36 31  
Month to date heating degree days 886  
Since 1 July heating degree days 6226  
Cooling Degree Days 0 0  
Month to date cooling degree days 0  
Year to date cooling degree days 0  
Moisture  
Dew Point 24 °F    
Average Humidity 72    
Maximum Humidity 81    
Minimum Humidity 58    
Precipitation  
Precipitation 0.00 in 0.06 in 0.50 in (1996)
Month to date precipitation 1.45  
Year to date precipitation 5.77  
Sea Level Pressure  
Sea Level Pressure 29.87 in    
Wind  
Wind Speed 4 mph (North)    
Max Wind Speed 13 mph    
Max Gust Speed 22 mph    
Visibility 10 miles    
Events      
T = Trace of Precipitation, MM = Missing Value Source: NWS Daily Summary

Daily Weather History Graph

Daily Weather History Graph

Search for Another Location

Airport or City:

Trip Planner

Search our weather history database for the weather conditions in past years. The results will help you decide how hot, cold, wet, or windy it might be!

Date:

Astronomy

Mar. 25, 2013 Rise Set
Actual Time 7:34 AM EDT 8:00 PM EDT
Civil Twilight 7:04 AM EDT 8:29 PM EDT
Nautical Twilight 6:30 AM EDT 9:04 PM EDT
Astronomical Twilight 5:54 AM EDT 9:40 PM EDT
Moon 6:28 PM EDT (3/25) 6:20 AM EDT (3/25)
Length of Visible Light 13h 24m
Length of Day
12h 25m
Waxing Gibbous, 96% of the Moon is Illuminated
Mar 25
Waxing Gibbous
Mar 27
Full
Apr 3
Last Quarter
Apr 10
New
Apr 18
First Quarter

Hourly Weather History & Observations

Time (EDT) Temp. Windchill Dew Point Humidity Pressure Visibility Wind Dir Wind Speed Gust Speed Precip Events Conditions
12:14 AM 23.2 °F - 16.5 °F 76% 29.84 in 10.0 mi Calm Calm - N/A   Overcast
12:35 AM 22.6 °F - 17.4 °F 80% 29.84 in 10.0 mi Calm Calm - N/A   Overcast
12:55 AM 24.4 °F - 18.1 °F 77% 29.83 in 10.0 mi Calm Calm - N/A   Overcast
1:14 AM 25.5 °F - 18.9 °F 76% 29.83 in 10.0 mi Calm Calm - N/A   Overcast
1:35 AM 25.7 °F - 18.9 °F 75% 29.82 in 10.0 mi Calm Calm - N/A   Overcast
1:54 AM 26.4 °F 22.4 °F 19.8 °F 76% 29.82 in 10.0 mi North 3.5 mph - N/A   Overcast
2:14 AM 28.9 °F 23.9 °F 20.8 °F 72% 29.82 in 10.0 mi North 4.6 mph - N/A   Overcast
2:35 AM 28.6 °F 23.5 °F 21.0 °F 73% 29.82 in 10.0 mi North 4.6 mph - N/A   Mostly Cloudy
2:54 AM 28.4 °F 24.6 °F 21.2 °F 74% 29.82 in 10.0 mi North 3.5 mph - N/A   Overcast
3:14 AM 29.1 °F 23.0 °F 21.9 °F 74% 29.82 in 10.0 mi North 5.8 mph - N/A   Overcast
3:34 AM 29.3 °F 25.6 °F 22.6 °F 76% 29.82 in 10.0 mi North 3.5 mph - N/A   Overcast
3:54 AM 29.8 °F 23.9 °F 23.5 °F 77% 29.82 in 10.0 mi NNE 5.8 mph - N/A   Overcast
4:15 AM 29.3 °F 24.3 °F 23.7 °F 80% 29.82 in 10.0 mi North 4.6 mph - N/A   Overcast
4:34 AM 29.3 °F 24.3 °F 23.9 °F 80% 29.82 in 10.0 mi North 4.6 mph - N/A   Overcast
4:54 AM 29.3 °F 24.3 °F 24.3 °F 81% 29.81 in 10.0 mi North 4.6 mph - N/A   Overcast
5:15 AM 30.0 °F 24.1 °F 24.8 °F 81% 29.81 in 10.0 mi North 5.8 mph - N/A   Overcast
5:34 AM 30.0 °F 24.1 °F 24.6 °F 80% 29.81 in 10.0 mi North 5.8 mph - N/A   Overcast
5:55 AM 30.2 °F 24.3 °F 24.6 °F 80% 29.81 in 10.0 mi North 5.8 mph - N/A   Overcast
6:15 AM 30.6 °F 24.7 °F 24.6 °F 79% 29.81 in 10.0 mi North 5.8 mph - N/A   Overcast
6:34 AM 30.6 °F 24.7 °F 24.8 °F 79% 29.81 in 10.0 mi North 5.8 mph - N/A   Overcast
6:55 AM 30.6 °F 24.7 °F 24.8 °F 79% 29.81 in 10.0 mi North 5.8 mph - N/A   Overcast
7:15 AM 30.2 °F 23.4 °F 24.3 °F 79% 29.80 in 10.0 mi North 6.9 mph - N/A   Overcast
7:34 AM 30.2 °F 23.4 °F 23.9 °F 77% 29.80 in 10.0 mi NNE 6.9 mph - N/A   Overcast
7:55 AM 30.4 °F 23.6 °F 23.9 °F 77% 29.81 in 10.0 mi North 6.9 mph - N/A   Overcast
8:14 AM 30.9 °F 24.3 °F 23.7 °F 75% 29.81 in 10.0 mi North 6.9 mph - N/A   Overcast
8:34 AM 31.1 °F 25.4 °F 23.7 °F 74% 29.82 in 10.0 mi North 5.8 mph - N/A   Overcast
8:55 AM 31.1 °F 23.7 °F 23.9 °F 75% 29.82 in 10.0 mi North 8.1 mph - N/A   Overcast
9:14 AM 31.5 °F 24.9 °F 23.9 °F 74% 29.83 in 10.0 mi North 6.9 mph - N/A   Overcast
9:35 AM 31.6 °F 24.4 °F 23.9 °F 73% 29.83 in 10.0 mi North 8.1 mph - N/A   Overcast
9:55 AM 31.6 °F 24.4 °F 23.9 °F 73% 29.83 in 10.0 mi North 8.1 mph 16.1 mph N/A   Overcast
10:14 AM 31.8 °F 22.8 °F 23.9 °F 73% 29.84 in 10.0 mi NNE 11.5 mph 16.1 mph N/A   Overcast
10:35 AM 32.0 °F 22.5 °F 24.4 °F 74% 29.85 in 10.0 mi NNE 12.7 mph 16.1 mph N/A   Overcast
10:55 AM 32.2 °F 25.0 °F 24.6 °F 74% 29.85 in 10.0 mi North 8.1 mph - N/A   Overcast
11:14 AM 32.5 °F 25.5 °F 23.9 °F 70% 29.85 in 10.0 mi North 8.1 mph - N/A   Overcast
11:35 AM 33.1 °F 27.7 °F 23.9 °F 69% 29.85 in 10.0 mi North 5.8 mph 16.1 mph N/A   Overcast
11:55 AM 34.0 °F 26.0 °F 23.7 °F 66% 29.85 in 10.0 mi NNE 10.4 mph 21.9 mph N/A   Overcast
12:14 PM 34.3 °F 29.2 °F 23.2 °F 64% 29.85 in 10.0 mi North 5.8 mph 16.1 mph N/A   Overcast
12:35 PM 34.7 °F 27.5 °F 24.3 °F 66% 29.85 in 10.0 mi NNW 9.2 mph - N/A   Overcast
12:55 PM 34.7 °F 28.8 °F 25.2 °F 68% 29.85 in 10.0 mi North 6.9 mph - N/A   Overcast
1:15 PM 35.1 °F 29.3 °F 25.3 °F 68% 29.86 in 10.0 mi North 6.9 mph - N/A   Overcast
1:35 PM 35.6 °F 30.7 °F 24.6 °F 64% 29.85 in 10.0 mi North 5.8 mph - N/A   Overcast
1:54 PM 35.2 °F 30.3 °F 25.2 °F 67% 29.86 in 10.0 mi NNW 5.8 mph - N/A   Overcast
2:15 PM 35.2 °F 29.5 °F 25.5 °F 68% 29.86 in 10.0 mi NNW 6.9 mph - N/A   Overcast
2:35 PM 35.6 °F 31.7 °F 25.2 °F 66% 29.86 in 10.0 mi NNW 4.6 mph - N/A   Overcast
2:54 PM 35.6 °F 27.5 °F 25.2 °F 66% 29.86 in 10.0 mi North 11.5 mph 16.1 mph N/A   Overcast
3:15 PM 35.6 °F 28.6 °F 25.3 °F 66% 29.86 in 10.0 mi North 9.2 mph - N/A   Overcast
3:35 PM 35.6 °F 29.2 °F 25.9 °F 68% 29.86 in 10.0 mi North 8.1 mph - N/A   Overcast
3:54 PM 36.3 °F 30.1 °F 25.3 °F 64% 29.86 in 10.0 mi North 8.1 mph - N/A   Overcast
4:15 PM 36.3 °F 30.8 °F 25.0 °F 63% 29.87 in 10.0 mi NNW 6.9 mph - N/A   Overcast
4:35 PM 36.1 °F 30.6 °F 25.3 °F 65% 29.88 in 10.0 mi NNW 6.9 mph 16.1 mph N/A   Overcast
4:55 PM 36.5 °F 32.7 °F 25.0 °F 63% 29.88 in 10.0 mi NNW 4.6 mph - N/A   Overcast
5:15 PM 36.1 °F 31.4 °F 24.8 °F 63% 29.88 in 10.0 mi North 5.8 mph - N/A   Overcast
5:35 PM 36.7 °F 32.9 °F 25.2 °F 63% 29.88 in 10.0 mi NNW 4.6 mph - N/A   Overcast
5:55 PM 37.4 °F 31.4 °F 25.2 °F 61% 29.89 in 10.0 mi NNW 8.1 mph - N/A   Overcast
6:15 PM 37.4 °F 32.8 °F 24.8 °F 60% 29.89 in 10.0 mi NNW 5.8 mph - N/A   Overcast
6:34 PM 37.4 °F 33.8 °F 24.3 °F 59% 29.90 in 10.0 mi NNW 4.6 mph - N/A   Overcast
6:55 PM 37.4 °F 32.1 °F 23.9 °F 58% 29.91 in 10.0 mi NW 6.9 mph - N/A   Overcast
7:15 PM 36.9 °F 33.1 °F 23.9 °F 59% 29.91 in 10.0 mi NW 4.6 mph - N/A   Overcast
7:34 PM 36.5 °F - 24.4 °F 62% 29.92 in 10.0 mi Calm Calm - N/A   Overcast
7:55 PM 36.5 °F 32.7 °F 24.8 °F 63% 29.93 in 10.0 mi NNW 4.6 mph - N/A   Overcast
8:15 PM 36.0 °F 30.3 °F 25.9 °F 67% 29.93 in 10.0 mi NNW 6.9 mph - N/A   Overcast
8:35 PM 35.8 °F 30.9 °F 26.6 °F 69% 29.94 in 10.0 mi NNW 5.8 mph - N/A   Overcast
8:55 PM 35.6 °F 31.7 °F 27.0 °F 71% 29.95 in 10.0 mi NNW 4.6 mph - N/A   Overcast
9:15 PM 35.1 °F 31.0 °F 27.1 °F 73% 29.96 in 10.0 mi NNW 4.6 mph - N/A   Overcast
9:35 PM 34.7 °F 30.6 °F 27.5 °F 75% 29.97 in 10.0 mi NNW 4.6 mph - N/A   Overcast
9:55 PM 34.7 °F 31.8 °F 27.3 °F 74% 29.97 in 10.0 mi North 3.5 mph - N/A   Overcast
10:15 PM 34.5 °F 31.6 °F 27.5 °F 76% 29.98 in 10.0 mi North 3.5 mph - N/A   Overcast
10:35 PM 34.3 °F 29.2 °F 27.3 °F 76% 29.98 in 10.0 mi NNW 5.8 mph - N/A   Overcast
10:55 PM 34.2 °F 29.0 °F 27.5 °F 77% 29.98 in 10.0 mi NNW 5.8 mph - N/A   Overcast
11:15 PM 34.2 °F 30.0 °F 27.3 °F 76% 29.98 in 10.0 mi North 4.6 mph - N/A   Overcast
11:35 PM 34.2 °F 31.2 °F 27.3 °F 76% 29.99 in 10.0 mi North 3.5 mph - N/A   Overcast
11:54 PM 34.0 °F 31.0 °F 27.5 °F 77% 29.99 in 10.0 mi NW 3.5 mph - N/A   Overcast